sensor_id;sensor_type;location;lat;lon;timestamp;pressure;altitude;pressure_sealevel;temperature;humidity
59513;BME280;45330;51.634;5.562;2023-04-05T00:00:50;102413.19;;;1.27;100.00
59513;BME280;45330;51.634;5.562;2023-04-05T00:03:16;102390.41;;;1.17;100.00
59513;BME280;45330;51.634;5.562;2023-04-05T00:05:42;102402.47;;;1.19;100.00
59513;BME280;45330;51.634;5.562;2023-04-05T00:08:08;102408.25;;;1.15;100.00
59513;BME280;45330;51.634;5.562;2023-04-05T00:10:38;102395.50;;;1.02;100.00
59513;BME280;45330;51.634;5.562;2023-04-05T00:13:03;102393.66;;;0.99;100.00
59513;BME280;45330;51.634;5.562;2023-04-05T00:15:29;102411.22;;;1.08;100.00
59513;BME280;45330;51.634;5.562;2023-04-05T00:17:56;102412.06;;;1.07;100.00
59513;BME280;45330;51.634;5.562;2023-04-05T00:20:22;102409.13;;;1.01;100.00
59513;BME280;45330;51.634;5.562;2023-04-05T00:22:47;102414.06;;;0.98;100.00
59513;BME280;45330;51.634;5.562;2023-04-05T00:25:14;102397.97;;;0.85;100.00
59513;BME280;45330;51.634;5.562;2023-04-05T00:27:42;102407.44;;;0.87;100.00
59513;BME280;45330;51.634;5.562;2023-04-05T00:30:08;102393.34;;;0.80;100.00
59513;BME280;45330;51.634;5.562;2023-04-05T00:32:34;102395.94;;;0.80;100.00
59513;BME280;45330;51.634;5.562;2023-04-05T00:34:59;102378.34;;;0.71;100.00
59513;BME280;45330;51.634;5.562;2023-04-05T00:37:25;102401.03;;;0.80;100.00
59513;BME280;45330;51.634;5.562;2023-04-05T00:39:50;102361.38;;;0.58;100.00
59513;BME280;45330;51.634;5.562;2023-04-05T00:42:18;102380.81;;;0.70;100.00
59513;BME280;45330;51.634;5.562;2023-04-05T00:44:43;102388.41;;;0.68;100.00
59513;BME280;45330;51.634;5.562;2023-04-05T00:47:09;102399.34;;;0.65;100.00
59513;BME280;45330;51.634;5.562;2023-04-05T00:49:35;102397.56;;;0.64;100.00
59513;BME280;45330;51.634;5.562;2023-04-05T00:52:01;102392.97;;;0.59;100.00
59513;BME280;45330;51.634;5.562;2023-04-05T00:54:27;102392.78;;;0.56;100.00
59513;BME280;45330;51.634;5.562;2023-04-05T00:56:59;102393.41;;;0.51;100.00
59513;BME280;45330;51.634;5.562;2023-04-05T00:59:25;102385.97;;;0.41;100.00
59513;BME280;45330;51.634;5.562;2023-04-05T01:02:05;102399.72;;;0.43;100.00
59513;BME280;45330;51.634;5.562;2023-04-05T01:04:32;102384.63;;;0.33;100.00
59513;BME280;45330;51.634;5.562;2023-04-05T01:07:35;102385.78;;;0.38;100.00
59513;BME280;45330;51.634;5.562;2023-04-05T01:09:52;102397.59;;;0.36;100.00
59513;BME280;45330;51.634;5.562;2023-04-05T01:12:22;102385.03;;;0.26;100.00
59513;BME280;45330;51.634;5.562;2023-04-05T01:14:50;102393.69;;;0.28;100.00
59513;BME280;45330;51.634;5.562;2023-04-05T01:17:17;102390.16;;;0.26;100.00
59513;BME280;45330;51.634;5.562;2023-04-05T01:19:51;102378.66;;;0.19;100.00
59513;BME280;45330;51.634;5.562;2023-04-05T01:25:30;102388.81;;;0.17;100.00
59513;BME280;45330;51.634;5.562;2023-04-05T01:30:53;102373.88;;;0.10;100.00
59513;BME280;45330;51.634;5.562;2023-04-05T01:33:31;102369.34;;;0.06;100.00
59513;BME280;45330;51.634;5.562;2023-04-05T01:36:10;102357.66;;;-0.04;100.00
59513;BME280;45330;51.634;5.562;2023-04-05T01:38:41;102376.03;;;0.04;100.00
59513;BME280;45330;51.634;5.562;2023-04-05T01:41:10;102376.03;;;0.04;100.00
59513;BME280;45330;51.634;5.562;2023-04-05T01:43:35;102351.28;;;-0.10;100.00
59513;BME280;45330;51.634;5.562;2023-04-05T01:46:01;102372.13;;;-0.04;100.00
59513;BME280;45330;51.634;5.562;2023-04-05T01:48:26;102334.28;;;-0.23;100.00
59513;BME280;45330;51.634;5.562;2023-04-05T01:50:52;102354.94;;;-0.20;100.00
59513;BME280;45330;51.634;5.562;2023-04-05T01:53:17;102360.53;;;-0.12;100.00
59513;BME280;45330;51.634;5.562;2023-04-05T01:55:43;102353.56;;;-0.15;100.00
59513;BME280;45330;51.634;5.562;2023-04-05T01:58:08;102364.84;;;-0.11;100.00
59513;BME280;45330;51.634;5.562;2023-04-05T02:00:33;102368.22;;;-0.12;100.00
59513;BME280;45330;51.634;5.562;2023-04-05T02:02:59;102356.09;;;-0.15;100.00
59513;BME280;45330;51.634;5.562;2023-04-05T02:05:24;102367.41;;;-0.11;100.00
59513;BME280;45330;51.634;5.562;2023-04-05T02:07:50;102362.09;;;-0.14;100.00
59513;BME280;45330;51.634;5.562;2023-04-05T02:10:16;102360.13;;;-0.19;100.00
59513;BME280;45330;51.634;5.562;2023-04-05T02:12:42;102361.13;;;-0.16;100.00
59513;BME280;45330;51.634;5.562;2023-04-05T02:15:08;102341.78;;;-0.26;100.00
59513;BME280;45330;51.634;5.562;2023-04-05T02:17:33;102335.38;;;-0.33;100.00
59513;BME280;45330;51.634;5.562;2023-04-05T02:20:06;102332.44;;;-0.39;100.00
59513;BME280;45330;51.634;5.562;2023-04-05T02:22:32;102326.94;;;-0.45;100.00
59513;BME280;45330;51.634;5.562;2023-04-05T02:24:58;102349.63;;;-0.37;100.00
59513;BME280;45330;51.634;5.562;2023-04-05T02:27:23;102324.78;;;-0.53;100.00
59513;BME280;45330;51.634;5.562;2023-04-05T02:29:49;102336.00;;;-0.50;100.00
59513;BME280;45330;51.634;5.562;2023-04-05T02:32:14;102310.06;;;-0.70;100.00
59513;BME280;45330;51.634;5.562;2023-04-05T02:34:39;102335.00;;;-0.53;100.00
59513;BME280;45330;51.634;5.562;2023-04-05T02:37:06;102326.56;;;-0.65;100.00
59513;BME280;45330;51.634;5.562;2023-04-05T02:39:31;102324.72;;;-0.67;100.00
59513;BME280;45330;51.634;5.562;2023-04-05T02:41:57;102321.84;;;-0.72;100.00
59513;BME280;45330;51.634;5.562;2023-04-05T02:44:23;102334.13;;;-0.66;100.00
59513;BME280;45330;51.634;5.562;2023-04-05T02:46:49;102298.66;;;-0.89;100.00
59513;BME280;45330;51.634;5.562;2023-04-05T02:49:14;102323.91;;;-0.80;100.00
59513;BME280;45330;51.634;5.562;2023-04-05T02:51:40;102321.19;;;-0.83;100.00
59513;BME280;45330;51.634;5.562;2023-04-05T02:54:05;102339.44;;;-0.77;100.00
59513;BME280;45330;51.634;5.562;2023-04-05T02:56:31;102313.88;;;-0.90;100.00
59513;BME280;45330;51.634;5.562;2023-04-05T02:58:56;102326.16;;;-0.84;100.00
59513;BME280;45330;51.634;5.562;2023-04-05T03:01:21;102320.19;;;-0.85;100.00
59513;BME280;45330;51.634;5.562;2023-04-05T03:03:47;102303.84;;;-1.00;100.00
59513;BME280;45330;51.634;5.562;2023-04-05T03:06:13;102323.03;;;-0.94;100.00
59513;BME280;45330;51.634;5.562;2023-04-05T03:08:40;102307.78;;;-1.06;100.00
59513;BME280;45330;51.634;5.562;2023-04-05T03:11:09;102310.66;;;-1.01;100.00
59513;BME280;45330;51.634;5.562;2023-04-05T03:13:35;102295.28;;;-1.14;100.00
59513;BME280;45330;51.634;5.562;2023-04-05T03:16:02;102314.66;;;-1.05;100.00
59513;BME280;45330;51.634;5.562;2023-04-05T03:18:27;102313.69;;;-1.07;100.00
59513;BME280;45330;51.634;5.562;2023-04-05T03:20:56;102302.28;;;-1.12;100.00
59513;BME280;45330;51.634;5.562;2023-04-05T03:23:30;102281.94;;;-1.24;100.00
59513;BME280;45330;51.634;5.562;2023-04-05T03:28:22;102284.41;;;-1.25;100.00
59513;BME280;45330;51.634;5.562;2023-04-05T03:30:48;102298.44;;;-1.18;100.00
59513;BME280;45330;51.634;5.562;2023-04-05T03:33:13;102275.44;;;-1.32;100.00
59513;BME280;45330;51.634;5.562;2023-04-05T03:35:39;102288.31;;;-1.30;100.00
59513;BME280;45330;51.634;5.562;2023-04-05T03:38:04;102299.81;;;-1.24;100.00
59513;BME280;45330;51.634;5.562;2023-04-05T03:40:30;102299.41;;;-1.30;100.00
59513;BME280;45330;51.634;5.562;2023-04-05T03:42:55;102303.63;;;-1.30;100.00
59513;BME280;45330;51.634;5.562;2023-04-05T03:45:20;102279.94;;;-1.41;100.00
59513;BME280;45330;51.634;5.562;2023-04-05T03:47:46;102283.59;;;-1.38;100.00
59513;BME280;45330;51.634;5.562;2023-04-05T03:50:11;102276.09;;;-1.48;100.00
59513;BME280;45330;51.634;5.562;2023-04-05T03:52:37;102293.69;;;-1.39;100.00
59513;BME280;45330;51.634;5.562;2023-04-05T03:55:02;102296.44;;;-1.36;100.00
59513;BME280;45330;51.634;5.562;2023-04-05T03:57:28;102294.38;;;-1.42;100.00
59513;BME280;45330;51.634;5.562;2023-04-05T03:59:54;102297.81;;;-1.41;100.00
59513;BME280;45330;51.634;5.562;2023-04-05T04:02:19;102296.75;;;-1.45;100.00
59513;BME280;45330;51.634;5.562;2023-04-05T04:04:45;102287.09;;;-1.49;100.00
59513;BME280;45330;51.634;5.562;2023-04-05T04:07:12;102269.97;;;-1.63;100.00
59513;BME280;45330;51.634;5.562;2023-04-05T04:09:37;102260.31;;;-1.67;100.00
59513;BME280;45330;51.634;5.562;2023-04-05T04:12:03;102281.47;;;-1.57;100.00
59513;BME280;45330;51.634;5.562;2023-04-05T04:14:28;102295.13;;;-1.56;100.00
59513;BME280;45330;51.634;5.562;2023-04-05T04:16:53;102270.34;;;-1.70;100.00
59513;BME280;45330;51.634;5.562;2023-04-05T04:19:19;102291.28;;;-1.63;100.00
59513;BME280;45330;51.634;5.562;2023-04-05T04:21:44;102293.06;;;-1.62;100.00
59513;BME280;45330;51.634;5.562;2023-04-05T04:24:15;102280.88;;;-1.66;100.00
59513;BME280;45330;51.634;5.562;2023-04-05T04:26:43;102273.91;;;-1.68;100.00
59513;BME280;45330;51.634;5.562;2023-04-05T04:29:09;102278.81;;;-1.71;100.00
59513;BME280;45330;51.634;5.562;2023-04-05T04:31:37;102289.00;;;-1.71;100.00
59513;BME280;45330;51.634;5.562;2023-04-05T04:34:04;102266.84;;;-1.84;100.00
59513;BME280;45330;51.634;5.562;2023-04-05T04:36:30;102292.44;;;-1.71;100.00
59513;BME280;45330;51.634;5.562;2023-04-05T04:39:03;102286.13;;;-1.76;100.00
59513;BME280;45330;51.634;5.562;2023-04-05T04:41:32;102284.38;;;-1.77;100.00
59513;BME280;45330;51.634;5.562;2023-04-05T04:44:01;102287.50;;;-1.81;100.00
59513;BME280;45330;51.634;5.562;2023-04-05T04:46:32;102290.16;;;-1.80;100.00
59513;BME280;45330;51.634;5.562;2023-04-05T04:49:02;102285.72;;;-1.82;100.00
59513;BME280;45330;51.634;5.562;2023-04-05T04:51:31;102274.69;;;-1.95;100.00
59513;BME280;45330;51.634;5.562;2023-04-05T04:53:57;102300.13;;;-1.83;100.00
59513;BME280;45330;51.634;5.562;2023-04-05T04:56:22;102255.97;;;-2.07;100.00
59513;BME280;45330;51.634;5.562;2023-04-05T04:58:47;102274.69;;;-1.95;100.00
59513;BME280;45330;51.634;5.562;2023-04-05T05:01:13;102275.56;;;-1.94;100.00
59513;BME280;45330;51.634;5.562;2023-04-05T05:03:38;102281.97;;;-1.87;100.00
59513;BME280;45330;51.634;5.562;2023-04-05T05:06:04;102282.16;;;-1.84;100.00
59513;BME280;45330;51.634;5.562;2023-04-05T05:08:30;102282.41;;;-1.81;100.00
59513;BME280;45330;51.634;5.562;2023-04-05T05:10:55;102289.88;;;-1.71;100.00
59513;BME280;45330;51.634;5.562;2023-04-05T05:13:20;102291.28;;;-1.63;100.00
59513;BME280;45330;51.634;5.562;2023-04-05T05:15:46;102283.84;;;-1.46;100.00
59513;BME280;45330;51.634;5.562;2023-04-05T05:18:12;102290.72;;;-1.45;100.00
59513;BME280;45330;51.634;5.562;2023-04-05T05:20:37;102262.44;;;-1.48;100.00
59513;BME280;45330;51.634;5.562;2023-04-05T05:23:03;102262.47;;;-1.35;100.00
59513;BME280;45330;51.634;5.562;2023-04-05T05:25:29;102279.66;;;-0.65;100.00
59513;BME280;45330;51.634;5.562;2023-04-05T05:27:55;102268.00;;;-0.33;100.00
59513;BME280;45330;51.634;5.562;2023-04-05T05:30:20;102265.72;;;-0.29;100.00
59513;BME280;45330;51.634;5.562;2023-04-05T05:32:46;102271.63;;;-0.30;100.00
59513;BME280;45330;51.634;5.562;2023-04-05T05:35:12;102266.69;;;-0.27;100.00
59513;BME280;45330;51.634;5.562;2023-04-05T05:37:38;102260.75;;;0.61;100.00
59513;BME280;45330;51.634;5.562;2023-04-05T05:40:03;102274.47;;;1.87;100.00
59513;BME280;45330;51.634;5.562;2023-04-05T05:42:29;102272.34;;;2.98;100.00
59513;BME280;45330;51.634;5.562;2023-04-05T05:44:58;102274.28;;;3.97;100.00
59513;BME280;45330;51.634;5.562;2023-04-05T05:47:24;102260.53;;;5.01;100.00
59513;BME280;45330;51.634;5.562;2023-04-05T05:49:49;102251.09;;;5.93;100.00
59513;BME280;45330;51.634;5.562;2023-04-05T05:52:15;102269.59;;;6.54;100.00
59513;BME280;45330;51.634;5.562;2023-04-05T05:54:40;102278.69;;;6.96;89.93
59513;BME280;45330;51.634;5.562;2023-04-05T05:57:06;102261.13;;;6.08;89.42
59513;BME280;45330;51.634;5.562;2023-04-05T05:59:31;102263.66;;;5.14;93.64
59513;BME280;45330;51.634;5.562;2023-04-05T06:01:56;102273.59;;;4.61;96.08
59513;BME280;45330;51.634;5.562;2023-04-05T06:04:22;102272.31;;;3.72;100.00
59513;BME280;45330;51.634;5.562;2023-04-05T06:06:47;102280.69;;;3.12;100.00
59513;BME280;45330;51.634;5.562;2023-04-05T06:09:13;102255.16;;;2.45;100.00
59513;BME280;45330;51.634;5.562;2023-04-05T06:11:41;102266.47;;;1.97;100.00
59513;BME280;45330;51.634;5.562;2023-04-05T06:14:07;102286.91;;;1.79;100.00
59513;BME280;45330;51.634;5.562;2023-04-05T06:16:32;102289.06;;;1.55;100.00
59513;BME280;45330;51.634;5.562;2023-04-05T06:19:00;102281.88;;;1.33;100.00
59513;BME280;45330;51.634;5.562;2023-04-05T06:21:25;102290.72;;;1.23;100.00
59513;BME280;45330;51.634;5.562;2023-04-05T06:23:51;102289.34;;;1.13;100.00
59513;BME280;45330;51.634;5.562;2023-04-05T06:26:18;102267.09;;;0.97;100.00
59513;BME280;45330;51.634;5.562;2023-04-05T06:28:45;102275.91;;;1.02;100.00
59513;BME280;45330;51.634;5.562;2023-04-05T06:31:13;102270.38;;;0.95;100.00
59513;BME280;45330;51.634;5.562;2023-04-05T06:33:40;102272.47;;;1.02;100.00
59513;BME280;45330;51.634;5.562;2023-04-05T06:36:05;102288.28;;;1.10;100.00
59513;BME280;45330;51.634;5.562;2023-04-05T06:38:31;102283.34;;;1.13;100.00
59513;BME280;45330;51.634;5.562;2023-04-05T06:40:56;102273.06;;;1.13;100.00
59513;BME280;45330;51.634;5.562;2023-04-05T06:43:21;102268.34;;;1.20;100.00
59513;BME280;45330;51.634;5.562;2023-04-05T06:45:47;102266.94;;;1.26;100.00
59513;BME280;45330;51.634;5.562;2023-04-05T06:48:12;102285.19;;;1.47;100.00
59513;BME280;45330;51.634;5.562;2023-04-05T06:50:37;102289.84;;;1.54;100.00
59513;BME280;45330;51.634;5.562;2023-04-05T06:53:04;102258.66;;;1.46;100.00
59513;BME280;45330;51.634;5.562;2023-04-05T06:55:31;102293.31;;;1.71;100.00
59513;BME280;45330;51.634;5.562;2023-04-05T06:57:56;102294.63;;;1.79;100.00
59513;BME280;45330;51.634;5.562;2023-04-05T07:00:22;102295.56;;;1.81;100.00
59513;BME280;45330;51.634;5.562;2023-04-05T07:02:48;102286.28;;;1.83;100.00
59513;BME280;45330;51.634;5.562;2023-04-05T07:05:13;102294.63;;;1.96;100.00
59513;BME280;45330;51.634;5.562;2023-04-05T07:07:39;102300.22;;;2.05;100.00
59513;BME280;45330;51.634;5.562;2023-04-05T07:10:07;102292.88;;;2.11;100.00
59513;BME280;45330;51.634;5.562;2023-04-05T07:12:32;102298.31;;;2.17;100.00
59513;BME280;45330;51.634;5.562;2023-04-05T07:14:58;102279.13;;;2.11;100.00
59513;BME280;45330;51.634;5.562;2023-04-05T07:17:24;102298.38;;;2.35;100.00
59513;BME280;45330;51.634;5.562;2023-04-05T07:19:49;102292.03;;;2.45;100.00
59513;BME280;45330;51.634;5.562;2023-04-05T07:22:15;102278.59;;;2.51;100.00
59513;BME280;45330;51.634;5.562;2023-04-05T07:24:41;102290.94;;;2.58;100.00
59513;BME280;45330;51.634;5.562;2023-04-05T07:27:06;102272.66;;;2.52;100.00
59513;BME280;45330;51.634;5.562;2023-04-05T07:29:32;102289.06;;;2.72;100.00
59513;BME280;45330;51.634;5.562;2023-04-05T07:31:59;102290.19;;;2.77;100.00
59513;BME280;45330;51.634;5.562;2023-04-05T07:34:24;102287.91;;;2.83;100.00
59513;BME280;45330;51.634;5.562;2023-04-05T07:36:51;102281.97;;;2.84;100.00
59513;BME280;45330;51.634;5.562;2023-04-05T07:39:16;102294.81;;;3.02;100.00
59513;BME280;45330;51.634;5.562;2023-04-05T07:41:42;102284.44;;;3.01;100.00
59513;BME280;45330;51.634;5.562;2023-04-05T07:44:07;102274.34;;;3.04;100.00
59513;BME280;45330;51.634;5.562;2023-04-05T07:46:33;102294.16;;;3.24;100.00
59513;BME280;45330;51.634;5.562;2023-04-05T07:48:59;102283.00;;;3.24;100.00
59513;BME280;45330;51.634;5.562;2023-04-05T07:51:24;102301.78;;;3.41;100.00
59513;BME280;45330;51.634;5.562;2023-04-05T07:53:51;102290.63;;;3.40;100.00
59513;BME280;45330;51.634;5.562;2023-04-05T07:56:17;102282.97;;;3.42;100.00
59513;BME280;45330;51.634;5.562;2023-04-05T07:58:43;102281.03;;;3.56;100.00
59513;BME280;45330;51.634;5.562;2023-04-05T08:01:09;102281.44;;;3.65;100.00
59513;BME280;45330;51.634;5.562;2023-04-05T08:03:35;102298.56;;;3.83;100.00
59513;BME280;45330;51.634;5.562;2023-04-05T08:06:14;102294.41;;;3.86;100.00
59513;BME280;45330;51.634;5.562;2023-04-05T08:08:42;102289.59;;;3.94;100.00
59513;BME280;45330;51.634;5.562;2023-04-05T08:11:07;102271.41;;;3.91;100.00
59513;BME280;45330;51.634;5.562;2023-04-05T08:13:33;102296.91;;;4.04;98.70
59513;BME280;45330;51.634;5.562;2023-04-05T08:15:59;102293.94;;;4.15;99.50
59513;BME280;45330;51.634;5.562;2023-04-05T08:18:26;102273.44;;;4.18;99.93
59513;BME280;45330;51.634;5.562;2023-04-05T08:20:53;102284.97;;;4.26;95.29
59513;BME280;45330;51.634;5.562;2023-04-05T08:23:18;102287.19;;;4.38;96.40
59513;BME280;45330;51.634;5.562;2023-04-05T08:25:44;102292.59;;;4.44;96.69
59513;BME280;45330;51.634;5.562;2023-04-05T08:28:10;102298.84;;;4.49;94.81
59513;BME280;45330;51.634;5.562;2023-04-05T08:30:35;102283.50;;;4.52;92.68
59513;BME280;45330;51.634;5.562;2023-04-05T08:33:01;102282.00;;;4.57;92.69
59513;BME280;45330;51.634;5.562;2023-04-05T08:35:26;102293.94;;;4.76;88.48
59513;BME280;45330;51.634;5.562;2023-04-05T08:37:52;102273.53;;;4.81;87.90
59513;BME280;45330;51.634;5.562;2023-04-05T08:40:17;102277.84;;;5.03;88.63
59513;BME280;45330;51.634;5.562;2023-04-05T08:42:54;102288.81;;;5.20;88.71
59513;BME280;45330;51.634;5.562;2023-04-05T08:45:22;102281.06;;;5.20;89.38
59513;BME280;45330;51.634;5.562;2023-04-05T08:47:51;102283.91;;;5.26;88.24
59513;BME280;45330;51.634;5.562;2023-04-05T08:50:20;102256.13;;;5.19;89.47
59513;BME280;45330;51.634;5.562;2023-04-05T08:52:46;102281.97;;;5.43;87.62
59513;BME280;45330;51.634;5.562;2023-04-05T08:55:15;102283.88;;;5.47;88.09
59513;BME280;45330;51.634;5.562;2023-04-05T08:57:42;102283.97;;;5.50;87.99
59513;BME280;45330;51.634;5.562;2023-04-05T09:00:08;102284.09;;;5.54;84.64
59513;BME280;45330;51.634;5.562;2023-04-05T09:02:36;102254.94;;;5.33;82.88
59513;BME280;45330;51.634;5.562;2023-04-05T09:05:03;102278.75;;;5.49;81.16
59513;BME280;45330;51.634;5.562;2023-04-05T09:07:34;102264.19;;;5.51;79.33
59513;BME280;45330;51.634;5.562;2023-04-05T09:10:00;102282.78;;;5.65;81.51
59513;BME280;45330;51.634;5.562;2023-04-05T09:12:27;102257.00;;;5.66;84.17
59513;BME280;45330;51.634;5.562;2023-04-05T09:14:53;102262.13;;;5.89;79.56
59513;BME280;45330;51.634;5.562;2023-04-05T09:17:20;102275.09;;;6.13;75.16
59513;BME280;45330;51.634;5.562;2023-04-05T09:19:47;102268.13;;;6.11;72.64
59513;BME280;45330;51.634;5.562;2023-04-05T09:22:15;102272.94;;;6.26;72.05
59513;BME280;45330;51.634;5.562;2023-04-05T09:24:44;102275.50;;;6.26;69.80
59513;BME280;45330;51.634;5.562;2023-04-05T09:27:18;102263.69;;;6.32;68.08
59513;BME280;45330;51.634;5.562;2023-04-05T09:29:45;102246.41;;;6.31;65.96
59513;BME280;45330;51.634;5.562;2023-04-05T09:32:12;102246.53;;;6.34;68.02
59513;BME280;45330;51.634;5.562;2023-04-05T09:34:39;102252.00;;;6.44;69.54
59513;BME280;45330;51.634;5.562;2023-04-05T09:37:15;102267.25;;;6.62;67.53
59513;BME280;45330;51.634;5.562;2023-04-05T09:39:42;102244.13;;;6.66;64.99
59513;BME280;45330;51.634;5.562;2023-04-05T09:42:15;102245.97;;;6.70;66.43
59513;BME280;45330;51.634;5.562;2023-04-05T09:44:52;102265.44;;;6.85;66.26
59513;BME280;45330;51.634;5.562;2023-04-05T09:47:25;102251.75;;;6.89;66.32
59513;BME280;45330;51.634;5.562;2023-04-05T09:49:55;102244.16;;;6.94;65.99
59513;BME280;45330;51.634;5.562;2023-04-05T09:52:22;102261.91;;;7.10;63.02
59513;BME280;45330;51.634;5.562;2023-04-05T09:54:48;102263.75;;;7.14;62.18
59513;BME280;45330;51.634;5.562;2023-04-05T09:57:15;102255.19;;;7.17;62.61
59513;BME280;45330;51.634;5.562;2023-04-05T09:59:42;102252.91;;;7.26;62.77
59513;BME280;45330;51.634;5.562;2023-04-05T10:02:09;102244.31;;;7.27;61.87
59513;BME280;45330;51.634;5.562;2023-04-05T10:04:42;102244.09;;;7.21;60.27
59513;BME280;45330;51.634;5.562;2023-04-05T10:07:10;102255.75;;;7.35;59.83
59513;BME280;45330;51.634;5.562;2023-04-05T10:09:39;102244.78;;;7.43;59.24
59513;BME280;45330;51.634;5.562;2023-04-05T10:12:06;102225.53;;;7.34;59.56
59513;BME280;45330;51.634;5.562;2023-04-05T10:14:34;102239.59;;;7.43;56.26
59513;BME280;45330;51.634;5.562;2023-04-05T10:17:15;102230.78;;;7.37;55.91
59513;BME280;45330;51.634;5.562;2023-04-05T10:25:04;102214.09;;;7.28;55.97
59513;BME280;45330;51.634;5.562;2023-04-05T10:27:41;102211.72;;;7.35;55.14
59513;BME280;45330;51.634;5.562;2023-04-05T10:30:11;102226.53;;;7.39;53.58
59513;BME280;45330;51.634;5.562;2023-04-05T10:35:40;102207.84;;;7.21;57.50
59513;BME280;45330;51.634;5.562;2023-04-05T10:38:12;102223.75;;;7.33;58.59
59513;BME280;45330;51.634;5.562;2023-04-05T10:40:45;102201.38;;;7.35;55.63
59513;BME280;45330;51.634;5.562;2023-04-05T10:43:20;102216.59;;;7.55;57.78
59513;BME280;45330;51.634;5.562;2023-04-05T10:45:48;102217.94;;;7.71;56.55
59513;BME280;45330;51.634;5.562;2023-04-05T10:51:23;102213.69;;;7.75;53.11
59513;BME280;45330;51.634;5.562;2023-04-05T10:53:48;102206.69;;;7.70;54.98
59513;BME280;45330;51.634;5.562;2023-04-05T10:56:15;102200.81;;;7.78;55.48
59513;BME280;45330;51.634;5.562;2023-04-05T10:58:42;102186.22;;;7.80;55.87
59513;BME280;45330;51.634;5.562;2023-04-05T11:01:08;102196.91;;;7.92;55.11
59513;BME280;45330;51.634;5.562;2023-04-05T11:03:44;102196.28;;;8.01;53.14
59513;BME280;45330;51.634;5.562;2023-04-05T11:11:40;102171.13;;;7.98;54.44
59513;BME280;45330;51.634;5.562;2023-04-05T11:14:25;102176.66;;;8.11;55.48
59513;BME280;45330;51.634;5.562;2023-04-05T11:16:59;102178.47;;;8.15;54.11
59513;BME280;45330;51.634;5.562;2023-04-05T11:19:47;102177.56;;;8.13;52.45
59513;BME280;45330;51.634;5.562;2023-04-05T11:22:13;102171.47;;;8.11;53.04
59513;BME280;45330;51.634;5.562;2023-04-05T11:24:59;102177.94;;;8.28;52.60
59513;BME280;45330;51.634;5.562;2023-04-05T11:27:34;102185.19;;;8.41;53.34
59513;BME280;45330;51.634;5.562;2023-04-05T11:30:03;102161.84;;;8.41;52.33
59513;BME280;45330;51.634;5.562;2023-04-05T11:32:40;102163.50;;;8.39;51.23
59513;BME280;45330;51.634;5.562;2023-04-05T11:35:16;102163.81;;;8.50;52.28
59513;BME280;45330;51.634;5.562;2023-04-05T11:43:09;102158.66;;;8.17;50.93
59513;BME280;45330;51.634;5.562;2023-04-05T11:45:37;102164.00;;;8.23;51.06
59513;BME280;45330;51.634;5.562;2023-04-05T11:48:04;102167.06;;;8.43;50.11
59513;BME280;45330;51.634;5.562;2023-04-05T11:50:31;102142.16;;;8.48;49.15
59513;BME280;45330;51.634;5.562;2023-04-05T11:53:15;102151.28;;;8.70;49.19
59513;BME280;45330;51.634;5.562;2023-04-05T11:55:45;102151.09;;;8.61;47.60
59513;BME280;45330;51.634;5.562;2023-04-05T11:58:15;102152.19;;;8.71;48.41
59513;BME280;45330;51.634;5.562;2023-04-05T12:00:42;102128.81;;;8.69;46.51
59513;BME280;45330;51.634;5.562;2023-04-05T12:03:14;102138.47;;;8.77;45.79
59513;BME280;45330;51.634;5.562;2023-04-05T12:05:50;102125.44;;;8.73;48.19
59513;BME280;45330;51.634;5.562;2023-04-05T12:08:19;102135.28;;;8.90;50.67
59513;BME280;45330;51.634;5.562;2023-04-05T12:10:58;102130.88;;;8.86;47.36
59513;BME280;45330;51.634;5.562;2023-04-05T12:13:30;102126.56;;;8.86;47.08
59513;BME280;45330;51.634;5.562;2023-04-05T12:15:57;102105.88;;;8.89;48.17
59513;BME280;45330;51.634;5.562;2023-04-05T12:18:24;102108.56;;;8.94;45.60
59513;BME280;45330;51.634;5.562;2023-04-05T12:20:51;102117.50;;;9.08;46.12
59513;BME280;45330;51.634;5.562;2023-04-05T12:23:17;102105.50;;;9.14;44.82
59513;BME280;45330;51.634;5.562;2023-04-05T12:25:47;102120.53;;;9.29;45.02
59513;BME280;45330;51.634;5.562;2023-04-05T12:28:12;102113.66;;;9.34;44.48
59513;BME280;45330;51.634;5.562;2023-04-05T12:30:54;102098.94;;;9.31;44.20
59513;BME280;45330;51.634;5.562;2023-04-05T12:33:30;102116.25;;;9.32;42.23
59513;BME280;45330;51.634;5.562;2023-04-05T12:35:57;102109.22;;;9.28;42.57
59513;BME280;45330;51.634;5.562;2023-04-05T12:38:27;102112.56;;;9.21;43.27
59513;BME280;45330;51.634;5.562;2023-04-05T12:40:53;102107.25;;;9.15;42.91
59513;BME280;45330;51.634;5.562;2023-04-05T12:43:23;102086.31;;;9.07;42.33
59513;BME280;45330;51.634;5.562;2023-04-05T12:45:52;102107.56;;;9.30;43.56
59513;BME280;45330;51.634;5.562;2023-04-05T12:48:21;102102.59;;;9.41;43.80
59513;BME280;45330;51.634;5.562;2023-04-05T12:50:48;102084.13;;;9.27;42.13
59513;BME280;45330;51.634;5.562;2023-04-05T12:53:20;102086.84;;;9.35;42.25
59513;BME280;45330;51.634;5.562;2023-04-05T12:55:52;102083.22;;;9.25;42.18
59513;BME280;45330;51.634;5.562;2023-04-05T12:58:19;102076.34;;;9.27;41.37
59513;BME280;45330;51.634;5.562;2023-04-05T13:00:44;102088.69;;;9.40;40.80
59513;BME280;45330;51.634;5.562;2023-04-05T13:03:20;102084.44;;;9.44;41.81
59513;BME280;45330;51.634;5.562;2023-04-05T13:05:48;102067.88;;;9.39;41.80
59513;BME280;45330;51.634;5.562;2023-04-05T13:08:14;102068.56;;;9.29;40.35
59513;BME280;45330;51.634;5.562;2023-04-05T13:10:43;102083.41;;;9.34;40.00
59513;BME280;45330;51.634;5.562;2023-04-05T13:13:09;102064.16;;;9.24;39.59
59513;BME280;45330;51.634;5.562;2023-04-05T13:15:34;102073.94;;;9.39;40.85
59513;BME280;45330;51.634;5.562;2023-04-05T13:18:00;102055.75;;;9.39;39.91
59513;BME280;45330;51.634;5.562;2023-04-05T13:20:25;102071.69;;;9.56;40.79
59513;BME280;45330;51.634;5.562;2023-04-05T13:22:51;102059.47;;;9.51;40.04